createdAt,value
2023-04-29T00:03:03.468Z,49.85
2023-04-29T00:08:06.460Z,49.97
2023-04-29T00:13:09.155Z,50.05
2023-04-29T00:18:11.887Z,50.31
2023-04-29T00:23:14.707Z,50.72
2023-04-29T00:28:17.368Z,50.78
2023-04-29T00:33:20.156Z,51.09
2023-04-29T00:38:22.868Z,50.95
2023-04-29T00:43:26.882Z,51.21
2023-04-29T00:48:30.267Z,51.16
2023-04-29T00:53:33.675Z,51.66
2023-04-29T00:58:36.524Z,51.25
2023-04-29T01:03:39.643Z,51.81
2023-04-29T01:09:20.723Z,52.34
2023-04-29T01:14:26.142Z,52.19
2023-04-29T01:19:52.450Z,53.52
2023-04-29T01:24:55.399Z,52.93
2023-04-29T01:30:04.798Z,52.17
2023-04-29T01:35:29.707Z,53.40
2023-04-29T01:40:43.736Z,53.53
2023-04-29T01:45:46.487Z,53.82
2023-04-29T01:50:49.193Z,53.80
2023-04-29T01:55:51.885Z,54.52
2023-04-29T02:00:55.650Z,54.31
2023-04-29T02:05:59.467Z,54.57
2023-04-29T02:11:02.187Z,54.15
2023-04-29T02:16:12.503Z,54.46
2023-04-29T02:21:16.007Z,54.54
2023-04-29T02:26:18.701Z,54.74
2023-04-29T02:31:21.577Z,54.77
2023-04-29T02:36:24.855Z,54.76
2023-04-29T02:41:27.838Z,54.71
2023-04-29T02:46:32.894Z,55.06
2023-04-29T02:51:35.586Z,55.05
2023-04-29T02:56:38.335Z,55.23
2023-04-29T03:01:41.553Z,55.04
2023-04-29T03:06:44.539Z,55.19
2023-04-29T03:11:47.207Z,55.14
2023-04-29T03:16:50.068Z,55.45
2023-04-29T03:21:54.006Z,55.60
2023-04-29T03:26:56.987Z,55.77
2023-04-29T03:31:59.866Z,55.80
2023-04-29T03:37:02.752Z,55.55
2023-04-29T03:42:05.694Z,55.57
2023-04-29T03:47:08.579Z,56.04
2023-04-29T03:52:12.627Z,56.19
2023-04-29T03:57:15.339Z,56.40
2023-04-29T04:02:18.192Z,56.20
2023-04-29T04:07:21.430Z,56.41
2023-04-29T04:12:24.111Z,56.61
2023-04-29T04:17:27.174Z,56.56
2023-04-29T04:22:29.887Z,56.61
2023-04-29T04:27:32.597Z,56.86
2023-04-29T04:32:35.414Z,56.86
2023-04-29T04:37:38.215Z,56.77
2023-04-29T04:42:41.299Z,57.03
2023-04-29T04:47:44.187Z,57.17
2023-04-29T04:52:46.888Z,57.28
2023-04-29T04:57:49.839Z,57.20
2023-04-29T05:02:52.743Z,57.50
2023-04-29T05:07:55.635Z,57.27
2023-04-29T05:12:58.333Z,57.22
2023-04-29T05:18:01.536Z,57.02
2023-04-29T05:23:04.467Z,56.92
2023-04-29T05:28:07.809Z,56.80
2023-04-29T05:33:11.404Z,56.89
2023-04-29T05:38:14.201Z,56.83
2023-04-29T05:43:16.886Z,56.91
2023-04-29T05:48:19.671Z,56.95
2023-04-29T05:53:22.424Z,57.11
2023-04-29T05:58:26.067Z,56.85
2023-04-29T06:03:29.463Z,56.80
2023-04-29T06:08:32.484Z,56.82
2023-04-29T06:13:35.187Z,56.65
2023-04-29T06:18:38.534Z,56.56
2023-04-29T06:23:43.453Z,56.29
2023-04-29T06:28:46.174Z,56.24
2023-04-29T06:33:49.035Z,56.00
2023-04-29T06:38:51.774Z,55.55
2023-04-29T06:43:54.544Z,55.28
2023-04-29T06:48:57.333Z,55.15
2023-04-29T06:54:00.141Z,55.19
2023-04-29T06:59:04.929Z,55.17
2023-04-29T07:04:07.760Z,54.73
2023-04-29T07:09:10.650Z,54.30
2023-04-29T07:14:14.033Z,53.91
2023-04-29T07:19:16.723Z,53.51
2023-04-29T07:24:19.492Z,53.43
2023-04-29T07:29:22.203Z,53.33
2023-04-29T07:34:24.976Z,53.47
2023-04-29T07:39:29.113Z,53.48
2023-04-29T07:44:31.799Z,53.10
2023-04-29T07:49:35.643Z,53.14
2023-04-29T07:54:38.447Z,53.25
2023-04-29T07:59:41.370Z,53.06
2023-04-29T08:04:44.788Z,52.71
2023-04-29T08:09:47.680Z,52.38
2023-04-29T08:14:50.994Z,52.16
2023-04-29T08:19:53.891Z,52.25
2023-04-29T08:24:57.716Z,52.36
2023-04-29T08:30:00.460Z,52.24
2023-04-29T08:35:03.316Z,52.06
2023-04-29T08:40:09.957Z,52.17
2023-04-29T08:45:13.491Z,52.04
2023-04-29T08:50:16.353Z,51.63
2023-04-29T08:55:19.180Z,51.42
2023-04-29T09:00:24.667Z,51.32
2023-04-29T09:05:28.849Z,50.60
2023-04-29T09:10:33.532Z,50.31
2023-04-29T09:15:37.949Z,50.51
2023-04-29T09:20:40.766Z,50.19
2023-04-29T09:25:57.652Z,48.43
2023-04-29T09:31:06.590Z,47.83
2023-04-29T09:36:09.824Z,47.59
2023-04-29T09:41:18.094Z,47.47
2023-04-29T09:46:21.074Z,47.57
2023-04-29T09:51:25.122Z,47.62
2023-04-29T09:56:31.043Z,47.58
2023-04-29T10:01:35.010Z,46.95
2023-04-29T10:06:42.301Z,46.04
2023-04-29T10:11:46.611Z,44.62
2023-04-29T10:17:14.644Z,43.55
2023-04-29T10:22:27.810Z,43.65
2023-04-29T10:27:34.284Z,42.25
2023-04-29T10:32:50.604Z,41.03
2023-04-29T10:37:56.202Z,40.20
2023-04-29T10:42:59.644Z,38.55
2023-04-29T10:48:03.386Z,38.70
2023-04-29T10:53:06.138Z,37.79
2023-04-29T10:58:38.675Z,37.58
2023-04-29T11:03:59.633Z,37.89
2023-04-29T11:09:15.191Z,37.73
2023-04-29T11:14:24.402Z,37.71
2023-04-29T11:19:57.535Z,38.22
2023-04-29T11:25:09.178Z,37.97
2023-04-29T11:30:12.708Z,37.99
2023-04-29T11:35:18.218Z,37.98
2023-04-29T11:40:21.589Z,38.30
2023-04-29T11:45:24.834Z,38.45
2023-04-29T11:50:27.706Z,37.88
2023-04-29T11:55:31.016Z,37.87
2023-04-29T12:00:34.019Z,37.96
2023-04-29T12:05:37.171Z,37.93
2023-04-29T12:10:41.463Z,38.01
2023-04-29T12:15:49.104Z,38.06
2023-04-29T12:20:52.032Z,37.75
2023-04-29T12:25:59.999Z,38.19
2023-04-29T12:31:04.006Z,38.15
2023-04-29T12:36:17.942Z,38.08
2023-04-29T12:41:21.276Z,38.17
2023-04-29T12:46:23.984Z,37.98
2023-04-29T12:51:27.198Z,37.96
2023-04-29T12:56:33.846Z,38.26
2023-04-29T13:01:38.686Z,38.43
2023-04-29T13:06:42.341Z,38.44
2023-04-29T13:11:45.096Z,38.35
2023-04-29T13:16:47.963Z,38.50
2023-04-29T13:21:51.078Z,38.60
2023-04-29T13:26:55.166Z,38.66
2023-04-29T13:31:57.903Z,38.67
2023-04-29T13:37:00.742Z,38.92
2023-04-29T13:42:04.280Z,39.02
2023-04-29T13:47:08.281Z,39.09
2023-04-29T14:02:25.897Z,39.33
2023-04-29T14:07:29.277Z,39.38
2023-04-29T14:12:32.427Z,39.50
2023-04-29T14:17:36.501Z,39.46
2023-04-29T14:22:40.935Z,39.70
2023-04-29T14:27:43.688Z,39.71
2023-04-29T14:32:47.586Z,39.68
2023-04-29T14:37:50.888Z,39.65
2023-04-29T14:42:53.796Z,39.42
2023-04-29T14:47:56.502Z,39.46
2023-04-29T14:53:00.380Z,39.67
2023-04-29T14:58:05.125Z,39.91
2023-04-29T15:03:10.238Z,40.05
2023-04-29T15:08:13.522Z,40.30
2023-04-29T15:13:16.375Z,40.48
2023-04-29T15:18:19.152Z,40.67
2023-04-29T15:23:21.858Z,40.90
2023-04-29T15:28:28.190Z,41.22
2023-04-29T15:33:31.632Z,41.42
2023-04-29T15:38:34.325Z,41.53
2023-04-29T15:43:37.448Z,41.77
2023-04-29T15:48:40.189Z,42.13
2023-04-29T15:53:43.978Z,42.25
2023-04-29T15:58:46.698Z,42.61
2023-04-29T16:03:49.438Z,42.87
2023-04-29T16:08:52.163Z,43.20
2023-04-29T16:13:54.836Z,43.57
2023-04-29T16:18:57.619Z,43.98
2023-04-29T16:24:00.287Z,44.43
2023-04-29T16:29:03.632Z,45.35
2023-04-29T16:34:06.410Z,46.14
2023-04-29T16:39:09.119Z,46.16
2023-04-29T16:44:11.851Z,46.70
2023-04-29T16:49:19.404Z,46.89
2023-04-29T16:54:23.788Z,47.32
2023-04-29T16:59:26.494Z,47.66
2023-04-29T17:04:33.451Z,48.10
2023-04-29T17:09:36.290Z,48.08
2023-04-29T17:14:40.522Z,48.60
2023-04-29T17:19:43.646Z,49.10
2023-04-29T17:24:46.621Z,49.36
2023-04-29T17:29:49.450Z,49.76
2023-04-29T17:34:53.267Z,50.12
2023-04-29T17:39:58.197Z,50.87
2023-04-29T17:45:01.051Z,51.03
2023-04-29T17:50:03.997Z,51.28
2023-04-29T17:55:07.456Z,51.07
2023-04-29T18:00:11.497Z,51.54
2023-04-29T18:05:14.268Z,51.66
2023-04-29T18:10:17.103Z,52.20
2023-04-29T18:15:22.796Z,52.43
2023-04-29T18:20:25.680Z,52.75
2023-04-29T18:25:28.589Z,52.90
2023-04-29T18:30:32.604Z,53.58
2023-04-29T18:35:35.421Z,53.84
2023-04-29T18:40:38.137Z,53.79
2023-04-29T18:45:41.247Z,54.45
2023-04-29T18:50:44.958Z,54.43
2023-04-29T18:55:47.744Z,54.96
2023-04-29T19:00:50.513Z,55.35
2023-04-29T19:05:53.266Z,55.43
2023-04-29T19:10:56.431Z,55.48
2023-04-29T19:16:00.843Z,55.66
2023-04-29T19:21:04.007Z,56.00
2023-04-29T19:26:08.474Z,55.91
2023-04-29T19:31:12.097Z,56.45
2023-04-29T19:36:14.814Z,56.50
2023-04-29T19:41:17.980Z,56.11
2023-04-29T19:46:21.079Z,56.15
2023-04-29T19:51:23.817Z,56.76
2023-04-29T19:56:26.861Z,56.24
2023-04-29T20:01:29.657Z,57.14
2023-04-29T20:06:35.055Z,57.09
2023-04-29T20:11:38.076Z,57.58
2023-04-29T20:16:40.844Z,57.54
2023-04-29T20:21:43.725Z,57.40
2023-04-29T20:26:46.455Z,58.29
2023-04-29T20:31:49.219Z,58.35
2023-04-29T20:36:52.061Z,58.79
2023-04-29T20:41:57.550Z,59.12
2023-04-29T20:47:00.225Z,59.95
2023-04-29T20:52:02.941Z,60.02
2023-04-29T20:57:05.826Z,68.56
2023-04-29T21:02:08.734Z,66.46
2023-04-29T21:07:11.514Z,56.42
2023-04-29T21:12:15.101Z,54.12
2023-04-29T21:17:20.849Z,55.98
2023-04-29T21:22:23.519Z,58.04
2023-04-29T21:27:26.238Z,59.27
2023-04-29T21:32:29.602Z,60.85
2023-04-29T21:37:33.931Z,68.94
2023-04-29T21:42:36.771Z,66.59
2023-04-29T21:47:39.763Z,60.25
2023-04-29T21:52:42.624Z,54.41
2023-04-29T21:57:45.974Z,54.34
2023-04-29T22:02:48.980Z,56.58
2023-04-29T22:07:51.727Z,58.65
2023-04-29T22:12:54.809Z,68.21
2023-04-29T22:18:00.235Z,67.04
2023-04-29T22:23:03.185Z,61.22
2023-04-29T22:28:05.912Z,54.19
2023-04-29T22:33:10.168Z,55.89
2023-04-29T22:38:12.944Z,56.98
2023-04-29T22:43:15.684Z,59.22
2023-04-29T22:48:18.522Z,60.98
2023-04-29T22:53:22.495Z,70.51
2023-04-29T22:58:25.963Z,65.98
2023-04-29T23:03:28.684Z,56.09
2023-04-29T23:08:31.999Z,56.68
2023-04-29T23:13:34.679Z,58.33
2023-04-29T23:18:37.571Z,59.73
2023-04-29T23:23:40.314Z,70.60
2023-04-29T23:28:43.069Z,63.83
2023-04-29T23:33:45.805Z,56.09
2023-04-29T23:38:48.510Z,55.65
2023-04-29T23:43:51.211Z,56.92
2023-04-29T23:48:53.877Z,58.67
2023-04-29T23:53:56.614Z,68.47
2023-04-29T23:58:59.737Z,62.68
